EDT,Max TemperatureF,Mean TemperatureF,Min TemperatureF,Max Dew PointF,MeanDew PointF,Min DewpointF,Max Humidity, Mean Humidity, Min Humidity, Max Sea Level PressureIn, Mean Sea Level PressureIn, Min Sea Level PressureIn, Max VisibilityMiles, Mean VisibilityMiles, Min VisibilityMiles, Max Wind SpeedMPH, Mean Wind SpeedMPH, Max Gust SpeedMPH,PrecipitationIn, CloudCover, Events, WindDirDegrees
2013-6-1,91,80,70,72,70,68,96,80,49,30.11,30.06,29.99,10,10,10,18,7,23,0.00,0,,214
2013-6-2,87,78,69,72,70,68,100,80,58,29.99,29.95,29.88,10,10,2,23,10,29,0.00,2,Rain-Thunderstorm,220
2013-6-3,80,73,66,73,70,66,100,96,65,29.95,29.90,29.80,10,10,5,15,2,22,0.21,6,Rain,261
2013-6-4,75,67,59,67,56,46,100,70,38,30.16,30.05,29.96,10,10,7,10,5,,0.00,1,,354
2013-6-5,82,68,53,59,55,52,100,77,37,30.21,30.17,30.12,10,10,10,7,2,,0.00,2,,154
2013-6-6,82,70,57,67,59,54,100,86,54,30.15,30.08,29.93,10,10,10,14,5,20,0.02,3,Rain,146
2013-6-7,71,68,66,72,69,66,100,100,100,29.93,29.79,29.58,10,7,1,17,7,28,0.39,7,Rain-Thunderstorm,144
2013-6-8,80,72,65,70,66,48,100,93,38,30.13,29.90,29.68,10,10,5,16,7,22,0.00,5,Rain,298
2013-6-9,84,73,62,72,66,63,100,89,55,30.24,30.17,30.13,10,6,0,10,1,,0.00,4,Fog,170
2013-6-10,82,74,67,75,72,68,100,97,74,30.16,30.03,29.87,10,7,1,17,6,25,0.13,6,Rain,191
2013-6-11,84,76,68,74,70,65,100,88,58,29.88,29.85,29.80,10,10,10,14,6,20,0.00,4,,263
2013-6-12,86,78,70,72,67,64,83,73,55,29.90,29.88,29.84,10,10,7,9,2,17,0.00,3,,328
2013-6-13,87,78,69,75,70,68,100,87,52,29.86,29.71,29.51,10,8,2,21,6,32,0.00,4,Rain-Thunderstorm,197
2013-6-14,77,67,57,63,58,54,100,83,50,29.99,29.83,29.66,10,9,5,15,9,30,0.01,4,Rain,8
2013-6-15,84,72,59,67,62,59,100,82,42,30.10,30.04,29.99,10,10,7,8,1,,0.00,1,,280
2013-6-16,84,75,66,72,68,66,100,87,55,30.07,30.01,29.92,10,10,7,13,1,17,0.00,3,,234
2013-6-17,86,78,71,73,71,68,100,86,55,30.00,29.97,29.93,10,10,10,12,1,17,0.00,2,,232
2013-6-18,78,70,62,75,69,62,100,96,83,29.98,29.90,29.83,10,8,2,14,2,21,0.00,5,Rain,156
2013-6-19,80,70,61,66,63,59,100,92,54,30.21,30.02,29.91,10,8,4,13,2,18,0.00,4,,70
2013-6-20,80,68,56,65,59,53,100,82,45,30.32,30.27,30.21,20,10,7,8,2,,0.00,1,,172
2013-6-21,84,69,54,64,57,52,100,79,39,30.34,30.32,30.28,10,10,10,7,1,,0.00,0,,146
2013-6-22,86,72,59,68,63,59,100,82,48,30.30,30.28,30.20,10,10,10,13,1,18,0.00,1,,236
2013-6-23,82,74,66,75,68,63,100,87,74,30.24,30.20,30.12,10,10,2,16,3,23,0.00,3,Rain,212
2013-6-24,91,81,71,77,74,72,100,91,52,30.17,30.14,30.07,10,10,7,12,2,17,0.00,1,Rain,250
2013-6-25,91,80,69,78,72,67,100,88,52,30.09,30.04,29.94,10,9,5,21,2,36,0.00,0,,252
2013-6-26,91,80,69,75,71,66,100,82,55,30.00,29.92,29.84,10,10,10,12,2,,0.00,2,,244
2013-6-27,87,80,72,75,73,71,100,89,66,29.87,29.81,29.66,10,10,10,20,4,29,0.01,3,Rain,221
2013-6-28,89,78,68,76,73,68,100,90,52,29.68,29.62,29.54,10,10,4,13,5,18,0.00,2,Rain-Thunderstorm,233
2013-6-29,87,77,67,77,70,66,100,89,51,29.72,29.62,29.56,10,9,5,13,3,,0.00,3,,217
2013-6-30,86,80,75,79,76,73,100,85,70,29.88,29.83,29.78,10,9,7,13,7,,0.00,6,,179